createdAt,value
2018-07-31T08:34:20.720Z,99.90
2018-07-31T08:36:49.156Z,99.90
2018-07-31T08:39:17.711Z,99.90
2018-07-31T08:41:46.289Z,99.90
2018-07-31T08:44:14.778Z,99.90
2018-07-31T08:46:43.220Z,99.90
2018-07-31T08:51:39.958Z,99.90
2018-07-31T08:54:08.462Z,99.90
2018-07-31T08:56:36.927Z,99.60
2018-07-31T08:59:05.441Z,99.30
2018-07-31T09:04:02.030Z,99.30
2018-07-31T09:06:30.465Z,98.90
2018-07-31T09:11:27.166Z,98.40
2018-07-31T09:13:55.575Z,97.90
2018-07-31T09:16:24.043Z,98.10
2018-07-31T09:18:52.485Z,95.90
2018-07-31T09:21:20.911Z,95.90
2018-07-31T09:23:49.339Z,96.40
2018-07-31T09:26:17.843Z,96.30
2018-07-31T09:28:46.291Z,96.30
2018-07-31T09:36:12.220Z,95.80
2018-07-31T09:38:40.697Z,95.00
2018-07-31T09:41:09.204Z,93.70
2018-07-31T09:46:05.780Z,93.50
2018-07-31T09:48:34.213Z,92.40
2018-07-31T09:51:02.899Z,90.60
2018-07-31T09:53:31.347Z,89.40
2018-07-31T09:56:00.013Z,88.70
2018-07-31T10:01:02.082Z,87.10
2018-07-31T10:03:30.503Z,86.90
2018-07-31T10:05:58.901Z,87.20
2018-07-31T10:08:27.696Z,86.50
2018-07-31T10:10:56.379Z,86.40
2018-07-31T10:13:24.790Z,85.80
2018-07-31T10:15:53.243Z,86.80
2018-07-31T10:18:21.757Z,86.00
2018-07-31T10:20:50.115Z,87.60
2018-07-31T10:23:18.554Z,87.60
2018-07-31T10:25:46.991Z,86.50
2018-07-31T10:28:15.551Z,85.50
2018-07-31T10:30:43.981Z,85.00
2018-07-31T10:33:12.383Z,84.90
2018-07-31T10:35:40.804Z,84.90
2018-07-31T10:38:09.299Z,84.80
2018-07-31T10:40:37.747Z,84.40
2018-07-31T10:43:06.219Z,84.40
2018-07-31T10:45:34.748Z,84.60
2018-07-31T10:48:03.216Z,83.80
2018-07-31T10:50:31.674Z,83.60
2018-07-31T10:53:00.078Z,83.70
2018-07-31T10:55:28.543Z,84.50
2018-07-31T10:57:57.016Z,83.50
2018-07-31T11:00:25.566Z,83.70
2018-07-31T11:02:54.104Z,83.40
2018-07-31T11:05:23.655Z,83.20
2018-07-31T11:07:52.069Z,83.30
2018-07-31T11:10:20.597Z,83.80
2018-07-31T11:15:17.196Z,83.30
2018-07-31T11:17:45.775Z,82.20
2018-07-31T11:20:14.193Z,81.80
2018-07-31T11:22:43.063Z,81.50
2018-07-31T11:25:11.509Z,80.40
2018-07-31T11:27:39.902Z,80.00
2018-07-31T11:30:09.455Z,79.40
2018-07-31T11:32:37.880Z,79.80
2018-07-31T11:35:06.327Z,80.00
2018-07-31T11:37:35.705Z,80.20
2018-07-31T11:40:04.311Z,79.50
2018-07-31T11:43:56.970Z,79.90
2018-07-31T11:46:25.443Z,79.70
2018-07-31T11:48:53.919Z,80.00
2018-07-31T11:51:22.477Z,80.00
2018-07-31T11:53:50.895Z,80.50
2018-07-31T11:56:19.328Z,80.10
2018-07-31T11:58:47.774Z,80.30
2018-07-31T12:03:44.553Z,80.00
2018-07-31T12:06:12.936Z,78.90
2018-07-31T12:08:41.397Z,77.70
2018-07-31T12:13:37.987Z,78.30
2018-07-31T12:16:06.508Z,78.50
2018-07-31T12:18:34.938Z,79.50
2018-07-31T12:21:03.426Z,79.50
2018-07-31T12:23:31.883Z,78.00
2018-07-31T12:28:28.511Z,79.10
2018-07-31T12:30:57.208Z,76.90
2018-07-31T12:33:25.736Z,77.80
2018-07-31T12:35:54.319Z,75.40
2018-07-31T12:38:22.842Z,74.90
2018-07-31T12:40:51.308Z,76.40
2018-07-31T12:43:20.547Z,76.40
2018-07-31T12:50:45.451Z,74.90
2018-07-31T12:53:13.933Z,75.00
2018-07-31T12:55:42.454Z,73.80
2018-07-31T12:58:10.915Z,75.80
2018-07-31T13:00:39.447Z,72.90
2018-07-31T13:03:08.091Z,72.10
2018-07-31T13:08:04.892Z,72.00
2018-07-31T13:10:33.427Z,71.40
2018-07-31T13:13:01.998Z,71.20
2018-07-31T13:15:30.544Z,72.60
2018-07-31T13:17:59.051Z,72.60
2018-07-31T13:20:27.499Z,71.90
2018-07-31T13:22:56.131Z,72.00
2018-07-31T13:25:24.614Z,72.40
2018-07-31T13:27:53.155Z,71.90
2018-07-31T13:30:21.596Z,73.00
2018-07-31T13:35:18.344Z,75.60
2018-07-31T13:37:46.811Z,74.20
2018-07-31T13:40:15.234Z,74.10
2018-07-31T13:42:43.741Z,76.10
2018-07-31T13:45:12.220Z,72.90
2018-07-31T13:47:40.743Z,73.00
2018-07-31T13:50:09.199Z,70.70
2018-07-31T13:52:37.738Z,71.10
2018-07-31T13:55:06.499Z,71.80
2018-07-31T13:57:34.964Z,71.80
2018-07-31T14:00:03.457Z,72.40
2018-07-31T14:02:31.975Z,72.60
2018-07-31T14:05:00.593Z,71.90
2018-07-31T14:07:29.040Z,71.80
2018-07-31T14:09:57.507Z,72.50
2018-07-31T14:12:25.963Z,73.30
2018-07-31T14:14:54.409Z,73.60
2018-07-31T14:17:22.800Z,72.40
2018-07-31T14:19:51.262Z,69.70
2018-07-31T14:22:19.714Z,68.50
2018-07-31T14:24:48.255Z,68.90
2018-07-31T14:27:16.735Z,68.80
2018-07-31T14:29:45.245Z,68.40
2018-07-31T14:32:13.819Z,68.90
2018-07-31T14:34:42.235Z,69.70
2018-07-31T14:39:39.607Z,69.70
2018-07-31T14:44:37.308Z,70.50
2018-07-31T14:47:05.779Z,72.10
2018-07-31T14:49:34.242Z,70.70
2018-07-31T14:54:30.907Z,70.80
2018-07-31T14:56:59.846Z,72.00
2018-07-31T14:59:28.447Z,71.40
2018-07-31T15:01:57.080Z,71.90
2018-07-31T15:04:25.599Z,72.00
2018-07-31T15:06:54.099Z,72.90
2018-07-31T15:09:22.579Z,71.50
2018-07-31T15:11:51.121Z,71.40
2018-07-31T15:14:19.531Z,71.40
2018-07-31T15:16:48.771Z,71.20
2018-07-31T15:24:14.820Z,70.00
2018-07-31T15:26:43.451Z,70.20
2018-07-31T15:29:12.068Z,69.70
2018-07-31T15:31:40.720Z,69.20
2018-07-31T15:34:09.268Z,69.00
2018-07-31T15:39:09.274Z,67.50
2018-07-31T15:41:37.825Z,67.70
2018-07-31T15:44:06.411Z,68.80
2018-07-31T15:46:35.715Z,67.40
2018-07-31T15:49:04.231Z,68.00
2018-07-31T15:51:33.239Z,67.00
2018-07-31T15:54:01.744Z,67.00
2018-07-31T15:56:30.276Z,67.00
2018-07-31T15:58:58.812Z,65.60
2018-07-31T16:01:28.685Z,66.30
2018-07-31T16:03:57.791Z,64.80
2018-07-31T16:06:26.369Z,65.00
2018-07-31T16:08:54.859Z,65.60
2018-07-31T16:11:23.419Z,65.60
2018-07-31T16:13:51.951Z,65.20
2018-07-31T16:18:03.030Z,64.20
2018-07-31T16:20:31.783Z,64.60
2018-07-31T16:23:00.312Z,65.10
2018-07-31T16:27:57.026Z,65.00
2018-07-31T16:30:25.638Z,65.20
2018-07-31T16:32:54.410Z,64.70
2018-07-31T16:35:23.004Z,64.80
2018-07-31T16:37:53.293Z,63.70
2018-07-31T16:40:21.893Z,63.90
2018-07-31T16:42:50.387Z,64.20
2018-07-31T16:45:18.863Z,64.50
2018-07-31T16:47:47.747Z,64.50
2018-07-31T16:50:16.949Z,64.70
2018-07-31T16:52:45.414Z,64.60
2018-07-31T16:55:13.971Z,64.50
2018-07-31T16:57:42.419Z,64.30
2018-07-31T17:00:10.843Z,64.20
2018-07-31T17:02:39.240Z,63.90
2018-07-31T17:05:07.675Z,63.60
2018-07-31T17:10:04.704Z,63.60
2018-07-31T17:12:33.287Z,63.80
2018-07-31T17:15:01.789Z,63.60
2018-07-31T17:19:58.415Z,63.80
2018-07-31T17:22:26.912Z,64.90
2018-07-31T17:24:55.583Z,63.70
2018-07-31T17:27:24.011Z,63.80
2018-07-31T17:32:20.650Z,64.50
2018-07-31T17:34:49.079Z,64.20
2018-07-31T17:37:17.613Z,64.40
2018-07-31T17:39:46.028Z,64.00
2018-07-31T17:42:14.446Z,63.70
2018-07-31T17:44:42.909Z,63.50
2018-07-31T17:47:11.433Z,63.50
2018-07-31T17:49:40.028Z,64.20
2018-07-31T17:52:08.485Z,63.60
2018-07-31T17:54:36.903Z,63.90
2018-07-31T17:59:33.699Z,64.00
2018-07-31T18:02:02.432Z,64.50
2018-07-31T18:04:30.887Z,64.40
2018-07-31T18:06:59.600Z,63.40
2018-07-31T18:09:28.121Z,63.70
2018-07-31T18:11:56.582Z,63.80
2018-07-31T18:16:53.374Z,63.60
2018-07-31T18:19:21.795Z,63.80
2018-07-31T18:21:50.346Z,63.80
2018-07-31T18:24:18.828Z,64.00
2018-07-31T18:26:47.283Z,64.00
2018-07-31T18:29:15.837Z,64.00
2018-07-31T18:31:44.245Z,64.10
2018-07-31T18:34:12.895Z,64.50
2018-07-31T18:36:41.447Z,64.30
2018-07-31T18:39:12.004Z,64.40
2018-07-31T18:41:41.207Z,64.60
2018-07-31T18:44:10.203Z,64.70
2018-07-31T18:46:38.699Z,64.50
2018-07-31T18:49:07.155Z,64.80
2018-07-31T18:51:35.905Z,64.90
2018-07-31T18:54:04.631Z,65.00
2018-07-31T18:56:33.461Z,65.20
2018-07-31T18:59:01.879Z,65.30
2018-07-31T19:01:30.546Z,65.50
2018-07-31T19:06:27.163Z,65.90
2018-07-31T19:08:55.720Z,66.00
2018-07-31T19:11:24.592Z,66.60
2018-07-31T19:13:53.095Z,66.40
2018-07-31T19:16:21.892Z,66.90
2018-07-31T19:18:50.463Z,68.00
2018-07-31T19:21:18.979Z,67.70
2018-07-31T19:23:47.543Z,68.70
2018-07-31T19:26:16.072Z,69.70
2018-07-31T19:28:44.624Z,70.30
2018-07-31T19:31:13.066Z,71.80
2018-07-31T19:33:41.639Z,72.80
2018-07-31T19:36:10.099Z,73.80
2018-07-31T19:38:38.519Z,74.80
2018-07-31T19:41:07.180Z,75.30
2018-07-31T19:43:35.685Z,76.10
2018-07-31T19:46:04.192Z,76.90
2018-07-31T19:48:32.759Z,77.50
2018-07-31T19:51:01.277Z,78.20
2018-07-31T19:55:58.309Z,79.00
2018-07-31T19:58:26.861Z,80.20
2018-07-31T20:00:55.487Z,80.10
2018-07-31T20:03:23.986Z,80.50
2018-07-31T20:05:52.913Z,81.00
2018-07-31T20:08:21.560Z,81.50
2018-07-31T20:10:50.020Z,81.90
2018-07-31T20:13:18.662Z,82.50
2018-07-31T20:15:47.309Z,82.90
2018-07-31T20:18:15.808Z,83.40
2018-07-31T20:20:44.306Z,83.60
2018-07-31T20:23:13.027Z,84.10
2018-07-31T20:25:41.556Z,84.40
2018-07-31T20:28:09.981Z,84.60
2018-07-31T20:30:38.646Z,85.10
2018-07-31T20:35:35.548Z,85.70
2018-07-31T20:38:04.100Z,86.10
2018-07-31T20:40:32.754Z,86.30
2018-07-31T20:43:01.237Z,86.40
2018-07-31T20:45:29.711Z,86.80
2018-07-31T20:47:58.272Z,87.10
2018-07-31T20:50:26.760Z,87.50
2018-07-31T20:52:55.217Z,87.80
2018-07-31T20:55:23.659Z,88.10
2018-07-31T20:57:52.195Z,88.30
2018-07-31T21:00:20.733Z,88.50
2018-07-31T21:02:49.153Z,88.60
2018-07-31T21:05:17.583Z,89.00
2018-07-31T21:10:14.084Z,90.00
2018-07-31T21:14:06.955Z,89.50
2018-07-31T21:16:35.409Z,89.90
2018-07-31T21:19:03.824Z,90.00
2018-07-31T21:21:32.240Z,90.30
2018-07-31T21:27:53.215Z,90.60
2018-07-31T21:30:21.645Z,90.60
2018-07-31T21:35:18.150Z,91.10
2018-07-31T21:37:46.591Z,91.20
2018-07-31T21:40:15.020Z,91.30
2018-07-31T21:42:43.436Z,91.50
2018-07-31T21:52:36.197Z,91.50
2018-07-31T21:55:05.187Z,91.40
2018-07-31T21:57:33.636Z,91.50
2018-07-31T22:00:02.068Z,91.40
2018-07-31T22:02:30.539Z,91.40
2018-07-31T22:04:58.939Z,91.50
2018-07-31T22:07:27.351Z,91.80
2018-07-31T22:12:23.948Z,92.10
2018-07-31T22:14:52.363Z,92.40
2018-07-31T22:17:20.793Z,92.50
2018-07-31T22:19:49.333Z,92.60
2018-07-31T22:22:17.764Z,92.70
2018-07-31T22:24:46.215Z,92.80
2018-07-31T22:27:14.639Z,93.00
2018-07-31T22:29:43.099Z,93.20
2018-07-31T22:32:11.484Z,93.40
2018-07-31T22:34:39.896Z,93.40
2018-07-31T22:37:08.293Z,93.40
2018-07-31T22:39:36.695Z,93.40
2018-07-31T22:42:05.160Z,93.50
2018-07-31T22:47:01.768Z,93.50
2018-07-31T22:49:30.187Z,93.50
2018-07-31T22:51:58.572Z,93.30
2018-07-31T22:55:53.967Z,93.00
2018-07-31T22:58:22.360Z,93.00
2018-07-31T23:00:50.841Z,93.00
2018-07-31T23:03:19.259Z,92.90
2018-07-31T23:05:47.687Z,92.70
2018-07-31T23:08:16.119Z,92.80
2018-07-31T23:10:44.561Z,92.80
2018-07-31T23:13:13.020Z,92.90
2018-07-31T23:15:41.451Z,92.90
2018-07-31T23:23:06.308Z,92.80
2018-07-31T23:25:34.727Z,92.80
2018-07-31T23:28:03.135Z,92.80
2018-07-31T23:32:59.692Z,92.90
2018-07-31T23:37:56.253Z,92.90
2018-07-31T23:40:24.719Z,92.90
2018-07-31T23:42:53.111Z,93.00
2018-07-31T23:45:21.519Z,93.20
2018-07-31T23:47:50.004Z,93.10
2018-07-31T23:50:18.447Z,93.10
2018-07-31T23:55:14.934Z,93.10
2018-07-31T23:57:43.371Z,93.10
